Time;durP1;ratioP1;P1;durP2;ratioP2;P2;SDS_P1;SDS_P2;PMS_P1;PMS_P2;Temp;Humidity;BMP_temperature;BMP_pressure;BME280_temperature;BME280_humidity;BME280_pressure;Samples;Min_cycle;Max_cycle;Signal;HPM_P1;HPM_P2
2022/04/27 00:03:02;;;;;;;37.70;23.90;;;;;;;9.59;58.01;99258.93;233288;1219;139366;-57
2022/04/27 00:08:06;;;;;;;34.00;23.40;;;;;;;9.61;58.17;99259.20;233074;1219;139170;-58
2022/04/27 00:13:14;;;;;;;38.10;23.30;;;;;;;9.66;58.09;99255.36;233206;1219;138368;-56
2022/04/27 00:18:17;;;;;;;36.70;24.00;;;;;;;9.68;58.16;99261.95;233261;1220;138161;-58
2022/04/27 00:23:24;;;;;;;40.00;24.90;;;;;;;9.67;58.14;99265.77;233215;1217;138574;-58
2022/04/27 00:28:28;;;;;;;39.10;24.50;;;;;;;9.65;58.14;99269.77;233193;1219;138712;-59
2022/04/27 00:33:32;;;;;;;40.00;24.40;;;;;;;9.62;58.02;99271.89;233221;1218;138588;-57
2022/04/27 00:38:35;;;;;;;37.40;24.40;;;;;;;9.54;57.96;99271.47;233182;1219;138275;-59
2022/04/27 00:43:40;;;;;;;37.90;23.10;;;;;;;9.46;57.99;99274.02;233201;1219;138674;-62
2022/04/27 00:48:44;;;;;;;35.30;22.30;;;;;;;9.41;58.24;99273.73;233199;1220;138914;-60
2022/04/27 00:53:49;;;;;;;35.50;22.10;;;;;;;9.35;58.31;99274.41;233212;1219;138609;-61
2022/04/27 00:58:52;;;;;;;32.50;21.70;;;;;;;9.27;58.27;99274.33;233248;1220;138844;-59
2022/04/27 01:03:56;;;;;;;32.50;21.10;;;;;;;9.20;58.34;99268.64;233109;1220;138672;-59
2022/04/27 01:08:59;;;;;;;31.30;19.90;;;;;;;9.22;58.54;99276.35;232762;1220;139259;-57
2022/04/27 01:14:02;;;;;;;34.40;21.10;;;;;;;9.27;58.49;99276.08;233390;1217;139476;-58
2022/04/27 01:19:05;;;;;;;32.10;21.20;;;;;;;9.31;58.44;99277.27;233171;1217;139713;-59
2022/04/27 01:24:12;;;;;;;36.50;21.50;;;;;;;9.32;58.45;99278.82;233372;1217;139170;-58
2022/04/27 01:29:16;;;;;;;33.10;20.60;;;;;;;9.29;58.42;99281.11;233194;1217;138584;-57
2022/04/27 01:34:20;;;;;;;30.60;19.90;;;;;;;9.23;58.38;99284.23;233346;1217;139084;-57
2022/04/27 01:39:23;;;;;;;30.50;20.30;;;;;;;9.19;58.43;99285.34;233229;1217;138903;-59
2022/04/27 01:44:27;;;;;;;32.10;19.30;;;;;;;9.16;58.31;99289.23;233248;1217;140765;-59
2022/04/27 01:49:30;;;;;;;31.60;19.60;;;;;;;9.13;58.66;99287.25;233245;1217;138397;-59
2022/04/27 01:54:33;;;;;;;31.00;18.20;;;;;;;9.12;58.71;99291.38;233296;1217;138759;-57
2022/04/27 01:59:37;;;;;;;28.60;18.10;;;;;;;9.11;58.62;99288.79;233406;1217;139315;-60
2022/04/27 02:04:40;;;;;;;26.80;17.70;;;;;;;9.12;58.76;99291.39;233278;1217;138001;-57
2022/04/27 02:09:44;;;;;;;27.80;18.00;;;;;;;9.12;58.92;99288.55;233159;1217;139453;-60
2022/04/27 02:14:49;;;;;;;31.10;18.20;;;;;;;9.17;58.96;99288.11;233307;1217;138978;-58
2022/04/27 02:19:54;;;;;;;32.40;18.10;;;;;;;9.23;58.77;99285.45;233157;1217;138722;-57
2022/04/27 02:24:57;;;;;;;27.00;17.80;;;;;;;9.26;58.91;99283.73;232934;1219;138536;-57
2022/04/27 02:30:00;;;;;;;29.40;18.60;;;;;;;9.24;58.75;99284.00;233372;1219;139121;-58
2022/04/27 02:35:06;;;;;;;27.40;17.30;;;;;;;9.21;58.82;99291.23;233343;1217;139231;-58
2022/04/27 02:40:09;;;;;;;28.10;17.10;;;;;;;9.20;58.84;99283.17;233053;1217;138979;-60
2022/04/27 02:45:13;;;;;;;31.40;18.00;;;;;;;9.17;58.92;99283.67;233109;1219;138667;-58
2022/04/27 02:55:37;;;;;;;29.80;17.10;;;;;;;9.17;58.97;99284.20;233172;1218;138465;-59
2022/04/27 03:00:40;;;;;;;25.30;16.90;;;;;;;9.18;59.09;99284.85;233420;1217;138105;-60
2022/04/27 03:05:44;;;;;;;26.30;17.20;;;;;;;9.17;59.20;99287.76;233445;1217;138364;-60
2022/04/27 03:10:47;;;;;;;28.00;17.20;;;;;;;9.17;59.08;99295.36;232086;1217;138948;-59
2022/04/27 03:15:50;;;;;;;28.90;17.30;;;;;;;9.21;59.26;99297.84;233192;1217;140058;-60
2022/04/27 03:20:53;;;;;;;30.40;18.60;;;;;;;9.28;59.37;99305.58;233376;1217;139075;-62
2022/04/27 03:25:56;;;;;;;32.90;17.90;;;;;;;9.31;59.31;99313.42;233522;1217;138082;-59
2022/04/27 03:31:01;;;;;;;31.60;18.90;;;;;;;9.32;59.27;99315.33;233455;1217;138468;-57
2022/04/27 03:36:13;;;;;;;28.50;17.90;;;;;;;9.31;59.17;99313.77;233249;1217;138427;-57
2022/04/27 03:41:19;;;;;;;33.00;18.70;;;;;;;9.24;59.17;99319.06;233546;1217;139611;-62
2022/04/27 03:46:22;;;;;;;28.80;18.30;;;;;;;9.18;59.02;99316.18;233324;1216;140241;-60
2022/04/27 03:51:46;;;;;;;37.70;18.40;;;;;;;9.16;59.06;99322.34;232846;1217;139194;-60
2022/04/27 03:56:50;;;;;;;30.60;18.80;;;;;;;9.14;59.17;99321.39;233325;1217;138690;-59
2022/04/27 04:01:53;;;;;;;30.90;18.60;;;;;;;9.13;59.16;99324.80;233425;1217;139024;-58
2022/04/27 04:06:56;;;;;;;30.40;18.50;;;;;;;9.13;59.29;99332.21;233278;1217;138419;-64
2022/04/27 04:12:01;;;;;;;31.10;18.90;;;;;;;9.15;59.42;99337.92;233096;1217;139065;-58
2022/04/27 04:17:05;;;;;;;35.80;19.40;;;;;;;9.19;59.56;99345.00;233191;1217;138497;-59
2022/04/27 04:22:28;;;;;;;29.20;17.40;;;;;;;9.28;59.35;99347.56;233249;1217;140007;-59
2022/04/27 04:32:59;;;;;;;32.70;19.00;;;;;;;9.57;60.00;99353.27;233407;1217;139652;-59
2022/04/27 04:38:17;;;;;;;32.00;18.60;;;;;;;9.68;60.03;99355.91;233345;1217;138850;-59
2022/04/27 04:43:20;;;;;;;28.90;18.70;;;;;;;9.79;60.12;99363.48;233255;1217;138821;-59
2022/04/27 04:48:23;;;;;;;32.40;18.00;;;;;;;9.87;60.13;99366.04;233295;1217;140299;-59
2022/04/27 04:53:53;;;;;;;27.90;17.30;;;;;;;9.96;60.19;99369.09;233237;1217;138419;-60
2022/04/27 04:59:35;;;;;;;24.70;16.90;;;;;;;10.09;60.52;99373.36;233358;1217;138724;-60
2022/04/27 05:04:41;;;;;;;28.70;18.80;;;;;;;10.24;60.29;99379.63;232350;1217;139183;-62
2022/04/27 05:10:04;;;;;;;27.40;17.40;;;;;;;10.41;60.22;99387.75;233175;1217;139026;-63
2022/04/27 05:15:23;;;;;;;24.10;16.40;;;;;;;10.55;60.16;99385.23;233336;1217;140655;-58
2022/04/27 05:20:37;;;;;;;24.90;16.50;;;;;;;10.80;60.26;99388.21;232614;1217;139404;-59
2022/04/27 05:26:00;;;;;;;29.30;17.10;;;;;;;11.11;60.29;99386.96;233076;1217;139317;-59
2022/04/27 05:37:01;;;;;;;26.30;18.50;;;;;;;11.49;59.82;99394.49;233566;1217;138818;-59
2022/04/27 05:42:38;;;;;;;;;;;;;;;11.56;59.26;99403.96;233305;1217;138480;-58
2022/04/27 05:47:56;;;;;;;30.30;18.70;;;;;;;11.58;59.38;99408.98;233434;1217;125012;-61
2022/04/27 05:53:16;;;;;;;29.60;18.60;;;;;;;11.65;59.51;99417.13;233338;1217;138779;-59
2022/04/27 05:58:26;;;;;;;35.90;19.00;;;;;;;11.75;59.27;99416.89;233271;1217;139364;-58
2022/04/27 06:03:43;;;;;;;32.50;20.00;;;;;;;11.88;59.82;99421.98;233055;1217;139739;-61
2022/04/27 06:08:47;;;;;;;29.40;18.70;;;;;;;12.02;59.23;99424.35;233290;1217;142425;-59
2022/04/27 06:13:54;;;;;;;28.30;19.40;;;;;;;12.13;59.42;99417.95;233200;1217;139283;-60
2022/04/27 06:19:18;;;;;;;30.10;19.30;;;;;;;12.25;59.61;99423.64;233301;1217;139267;-60
2022/04/27 06:24:26;;;;;;;31.10;19.90;;;;;;;12.34;59.67;99421.44;232864;1217;139122;-61
2022/04/27 06:29:31;;;;;;;75.30;56.80;;;;;;;12.42;59.42;99425.95;233417;1217;139777;-60
2022/04/27 06:34:35;;;;;;;31.90;21.80;;;;;;;12.58;59.55;99430.06;233240;1217;139913;-59
2022/04/27 06:39:40;;;;;;;29.80;18.60;;;;;;;12.85;59.68;99432.59;233191;1217;140104;-60
2022/04/27 06:44:44;;;;;;;27.60;19.40;;;;;;;12.94;59.12;99428.09;233329;1219;138711;-57
2022/04/27 06:50:21;;;;;;;23.20;17.40;;;;;;;13.06;59.21;99433.85;233192;1217;138912;-59
2022/04/27 06:55:50;;;;;;;85.20;65.20;;;;;;;13.18;58.98;99439.86;233248;1217;139261;-59
2022/04/27 07:01:18;;;;;;;25.90;18.20;;;;;;;13.35;58.69;99451.08;232777;1217;138994;-60
2022/04/27 07:06:22;;;;;;;23.30;18.10;;;;;;;13.41;58.58;99449.58;232475;1217;138796;-58
2022/04/27 07:11:29;;;;;;;24.90;17.20;;;;;;;13.47;58.49;99448.48;233307;1217;138723;-58
2022/04/27 07:16:32;;;;;;;29.00;17.60;;;;;;;13.55;58.07;99451.71;233353;1216;138769;-61
2022/04/27 07:21:35;;;;;;;22.80;17.10;;;;;;;13.60;57.92;99455.60;233131;1217;138619;-58
2022/04/27 07:26:38;;;;;;;21.10;16.30;;;;;;;13.67;57.88;99458.53;233385;1217;139139;-57
2022/04/27 07:31:42;;;;;;;24.60;17.00;;;;;;;13.81;58.00;99465.80;232758;1217;138418;-58
2022/04/27 07:36:45;;;;;;;21.20;15.90;;;;;;;13.90;57.73;99469.61;233407;1217;138555;-57
2022/04/27 07:41:48;;;;;;;18.50;15.10;;;;;;;14.00;57.57;99473.56;233477;1217;138769;-58
2022/04/27 07:46:51;;;;;;;37.80;26.30;;;;;;;14.04;57.17;99474.38;233297;1217;138826;-57
2022/04/27 07:51:55;;;;;;;26.90;17.40;;;;;;;14.24;57.58;99480.11;232838;1217;138827;-58
2022/04/27 07:56:58;;;;;;;22.30;16.00;;;;;;;14.38;57.00;99484.83;233201;1217;140750;-59
2022/04/27 08:02:01;;;;;;;20.50;15.30;;;;;;;14.41;56.75;99483.04;233265;1217;139115;-59
2022/04/27 08:07:05;;;;;;;20.00;15.80;;;;;;;14.47;56.65;99477.25;233449;1217;138589;-59
2022/04/27 08:12:08;;;;;;;84.20;65.00;;;;;;;14.62;56.35;99491.23;233007;1217;138729;-59
2022/04/27 08:17:11;;;;;;;22.40;16.30;;;;;;;14.68;56.14;99495.56;232685;1217;139284;-58
2022/04/27 08:22:14;;;;;;;256.80;180.20;;;;;;;14.69;55.91;99495.17;231760;1217;139750;-60
2022/04/27 08:27:18;;;;;;;29.80;20.20;;;;;;;14.75;55.92;99496.02;232661;1217;141009;-58
2022/04/27 08:32:21;;;;;;;19.70;14.80;;;;;;;14.79;55.92;99499.80;233221;1217;138795;-59
2022/04/27 08:37:24;;;;;;;22.80;16.70;;;;;;;14.85;55.60;99496.83;233475;1217;138832;-60
2022/04/27 08:42:27;;;;;;;19.20;15.30;;;;;;;15.01;55.42;99503.73;232946;1217;138932;-59
2022/04/27 08:47:32;;;;;;;20.60;15.60;;;;;;;15.06;55.39;99502.80;233192;1217;138708;-61
2022/04/27 08:52:36;;;;;;;24.60;16.50;;;;;;;15.15;55.06;99505.77;233121;1217;138714;-60
2022/04/27 08:57:40;;;;;;;21.20;16.20;;;;;;;15.10;54.82;99501.96;233437;1217;139384;-61
2022/04/27 09:02:44;;;;;;;21.30;16.00;;;;;;;15.03;54.89;99499.49;233234;1218;139848;-61
2022/04/27 09:07:52;;;;;;;19.20;15.10;;;;;;;15.00;54.75;99494.73;233127;1218;140631;-60
2022/04/27 09:12:57;;;;;;;22.30;15.20;;;;;;;15.06;55.02;99498.16;233145;1217;139087;-60
2022/04/27 09:23:26;;;;;;;22.10;16.60;;;;;;;15.48;55.21;99497.96;233238;1217;138482;-61
2022/04/27 09:28:30;;;;;;;25.50;17.60;;;;;;;15.59;55.04;99494.23;233424;1217;138959;-61
2022/04/27 09:33:35;;;;;;;23.20;18.00;;;;;;;15.77;54.82;99490.03;233177;1217;138674;-61
2022/04/27 09:38:40;;;;;;;22.80;17.00;;;;;;;15.98;54.80;99485.06;232857;1218;138829;-60
2022/04/27 09:43:45;;;;;;;24.00;17.30;;;;;;;16.19;54.74;99481.05;233111;1218;138960;-61
2022/04/27 09:49:11;;;;;;;121.70;83.70;;;;;;;16.33;54.59;99474.42;233295;1217;138894;-59
2022/04/27 09:54:36;;;;;;;18.70;13.90;;;;;;;16.41;54.45;99473.61;233331;1217;138811;-60
2022/04/27 09:59:40;;;;;;;19.90;14.30;;;;;;;16.41;53.84;99468.77;233337;1217;138736;-62
2022/04/27 10:04:45;;;;;;;17.00;14.00;;;;;;;16.36;53.65;99462.16;233306;1217;138647;-62
2022/04/27 10:09:49;;;;;;;20.90;14.80;;;;;;;16.33;53.26;99461.19;233214;1217;139045;-62
2022/04/27 10:14:53;;;;;;;20.40;15.50;;;;;;;16.31;53.34;99465.60;233185;1217;139037;-62
2022/04/27 10:19:56;;;;;;;22.90;15.00;;;;;;;16.25;53.14;99467.34;233156;1217;139847;-60
2022/04/27 10:25:07;;;;;;;22.80;14.60;;;;;;;16.17;52.97;99469.03;233220;1217;138923;-61
2022/04/27 10:30:12;;;;;;;20.10;15.40;;;;;;;16.00;52.61;99471.63;233457;1216;140094;-61
2022/04/27 10:35:18;;;;;;;22.00;15.20;;;;;;;15.89;52.56;99472.66;233274;1217;139116;-61
2022/04/27 10:40:29;;;;;;;;;;;;;;;15.74;52.44;99475.81;232877;1217;139199;-61
2022/04/27 10:45:33;;;;;;;24.70;14.80;;;;;;;15.50;52.18;99483.09;233428;1217;125236;-62
2022/04/27 10:50:37;;;;;;;16.20;12.00;;;;;;;15.34;52.56;99480.92;233353;1217;138859;-60
2022/04/27 10:55:47;;;;;;;15.00;11.40;;;;;;;15.33;52.67;99485.41;233287;1217;139237;-61
2022/04/27 11:01:02;;;;;;;14.70;10.40;;;;;;;15.33;52.77;99485.42;233373;1217;139633;-61
2022/04/27 11:06:16;;;;;;;13.80;10.40;;;;;;;15.38;52.94;99489.89;233444;1217;139221;-62
2022/04/27 11:11:24;;;;;;;17.90;11.60;;;;;;;15.50;53.02;99495.64;233436;1217;138719;-60
2022/04/27 11:16:27;;;;;;;51.80;41.40;;;;;;;15.69;53.17;99491.02;233125;1217;139683;-60
2022/04/27 11:21:30;;;;;;;15.90;11.70;;;;;;;15.73;52.94;99484.23;232690;1217;138901;-61
2022/04/27 11:26:47;;;;;;;18.60;13.90;;;;;;;15.74;52.55;99484.55;233212;1217;139037;-61
2022/04/27 11:31:50;;;;;;;22.70;13.70;;;;;;;15.62;52.27;99490.06;233108;1217;139561;-61
2022/04/27 11:36:54;;;;;;;19.90;14.60;;;;;;;15.54;52.29;99496.80;233289;1217;139036;-60
2022/04/27 11:41:59;;;;;;;21.40;15.50;;;;;;;15.38;52.20;99493.18;233512;1217;138942;-61
2022/04/27 11:47:03;;;;;;;23.90;14.70;;;;;;;15.24;51.97;99498.30;233317;1217;138442;-61
2022/04/27 11:52:17;;;;;;;19.90;14.50;;;;;;;15.09;52.23;99500.29;232885;1217;140532;-61
2022/04/27 11:57:22;;;;;;;29.00;20.50;;;;;;;14.99;52.29;99503.50;233187;1217;139078;-61
2022/04/27 12:02:26;;;;;;;250.80;196.00;;;;;;;14.98;52.73;99503.23;233401;1217;138660;-61
2022/04/27 12:07:37;;;;;;;30.50;21.20;;;;;;;15.07;53.16;99502.22;233293;1217;138467;-62
2022/04/27 12:12:41;;;;;;;24.40;14.90;;;;;;;15.06;52.77;99504.23;233278;1217;139099;-60
2022/04/27 12:17:45;;;;;;;21.20;15.40;;;;;;;15.03;52.73;99503.04;233212;1217;140476;-61
2022/04/27 12:22:55;;;;;;;25.70;14.80;;;;;;;15.08;53.04;99498.73;232671;1217;139415;-60
2022/04/27 12:28:00;;;;;;;21.90;13.50;;;;;;;15.13;52.98;99494.09;233361;1217;139234;-59
2022/04/27 12:33:03;;;;;;;20.40;12.70;;;;;;;15.16;52.94;99492.45;233299;1217;139344;-58
2022/04/27 12:38:12;;;;;;;20.20;14.10;;;;;;;15.25;53.10;99490.73;233161;1217;139177;-60
2022/04/27 12:43:17;;;;;;;37.30;30.50;;;;;;;15.26;52.95;99482.41;233321;1215;139078;-60
2022/04/27 12:48:29;;;;;;;81.80;60.10;;;;;;;16.06;56.56;99480.45;233418;1217;138910;-58
2022/04/27 12:53:32;;;;;;;29.20;21.00;;;;;;;16.65;54.75;99471.48;233238;1217;139214;-61
2022/04/27 12:58:37;;;;;;;21.80;14.80;;;;;;;17.31;55.71;99467.74;233252;1217;138832;-61
2022/04/27 13:03:43;;;;;;;21.50;13.90;;;;;;;17.45;52.83;99471.95;233218;1217;141330;-60
2022/04/27 13:08:46;;;;;;;24.40;13.20;;;;;;;17.11;51.86;99462.46;233228;1217;139012;-62
2022/04/27 13:13:49;;;;;;;21.70;13.20;;;;;;;16.82;51.21;99465.85;233158;1217;139296;-61
2022/04/27 13:18:52;;;;;;;18.60;13.20;;;;;;;16.54;50.79;99459.33;233121;1217;138931;-61
2022/04/27 13:23:55;;;;;;;22.40;13.10;;;;;;;16.34;51.20;99464.85;233382;1217;138667;-62
2022/04/27 13:28:58;;;;;;;21.40;13.20;;;;;;;16.18;51.26;99465.40;233323;1217;138774;-61
2022/04/27 13:34:01;;;;;;;18.60;12.30;;;;;;;16.00;51.11;99463.98;233237;1217;138846;-61
2022/04/27 13:39:04;;;;;;;95.80;75.40;;;;;;;15.92;51.05;99458.48;233217;1217;139343;-61
2022/04/27 13:44:08;;;;;;;20.10;15.10;;;;;;;15.85;51.15;99454.38;233324;1216;138704;-62
2022/04/27 13:49:11;;;;;;;17.20;11.60;;;;;;;15.78;51.15;99458.98;233259;1217;140436;-60
2022/04/27 13:54:14;;;;;;;17.90;11.90;;;;;;;15.72;51.15;99456.09;233345;1217;138430;-61
2022/04/27 13:59:17;;;;;;;16.40;11.80;;;;;;;15.70;51.09;99458.02;233259;1215;139711;-61
2022/04/27 14:04:20;;;;;;;22.10;12.40;;;;;;;15.72;51.05;99461.81;233055;1219;139550;-61
2022/04/27 14:09:27;;;;;;;22.20;12.00;;;;;;;15.72;51.14;99459.69;233075;1217;139940;-61
2022/04/27 14:14:30;;;;;;;16.70;11.30;;;;;;;15.81;51.36;99458.23;233207;1217;139452;-61
2022/04/27 14:19:34;;;;;;;17.20;11.30;;;;;;;15.91;51.17;99456.08;233125;1217;139417;-61
2022/04/27 14:24:38;;;;;;;18.70;12.30;;;;;;;16.01;51.07;99454.58;233321;1217;139305;-61
2022/04/27 14:29:42;;;;;;;18.90;12.90;;;;;;;16.03;51.08;99450.84;233226;1217;139280;-61
2022/04/27 14:34:45;;;;;;;19.20;12.40;;;;;;;16.08;51.08;99446.89;232504;1217;139074;-60
2022/04/27 14:39:48;;;;;;;21.90;12.70;;;;;;;16.16;51.30;99443.94;232942;1217;139846;-62
2022/04/27 14:44:53;;;;;;;34.40;27.40;;;;;;;16.22;51.02;99440.92;233125;1217;139249;-62
2022/04/27 14:50:02;;;;;;;22.80;13.80;;;;;;;16.27;50.99;99435.17;233093;1217;138831;-65
2022/04/27 14:55:06;;;;;;;17.60;12.80;;;;;;;16.36;50.66;99435.48;233508;1217;139291;-62
2022/04/27 15:00:10;;;;;;;21.60;12.90;;;;;;;16.43;50.63;99438.73;233461;1217;139575;-61
2022/04/27 15:05:15;;;;;;;18.70;12.60;;;;;;;16.50;50.47;99440.32;233196;1217;138788;-61
2022/04/27 15:10:18;;;;;;;21.00;12.40;;;;;;;16.59;50.21;99439.02;233108;1217;138814;-61
2022/04/27 15:15:21;;;;;;;19.60;10.80;;;;;;;16.58;50.67;99444.15;233171;1219;139087;-61
2022/04/27 15:25:46;;;;;;;21.90;13.10;;;;;;;16.54;50.02;99443.25;233243;1217;139416;-61
2022/04/27 15:30:49;;;;;;;25.20;12.40;;;;;;;16.49;50.13;99447.35;233245;1217;138667;-62
2022/04/27 15:35:52;;;;;;;17.60;12.20;;;;;;;16.44;49.97;99460.67;233411;1217;139256;-62
2022/04/27 15:40:55;;;;;;;18.90;12.70;;;;;;;16.37;49.80;99464.09;233339;1217;138800;-62
2022/04/27 15:45:58;;;;;;;21.20;13.70;;;;;;;16.31;49.73;99464.20;233194;1217;139390;-61
2022/04/27 15:51:02;;;;;;;26.70;16.60;;;;;;;16.20;49.65;99469.77;233294;1217;138717;-63
2022/04/27 15:56:09;;;;;;;30.80;23.20;;;;;;;16.14;50.10;99473.06;233288;1217;139030;-62
2022/04/27 16:01:13;;;;;;;22.30;13.70;;;;;;;16.12;50.07;99477.00;233323;1217;139149;-62
2022/04/27 16:06:18;;;;;;;20.20;13.70;;;;;;;16.03;49.98;99472.11;233384;1217;141092;-63
2022/04/27 16:11:21;;;;;;;21.90;14.10;;;;;;;15.97;50.03;99472.48;233221;1217;139629;-62
2022/04/27 16:16:24;;;;;;;46.50;25.90;;;;;;;16.42;53.56;99470.36;233374;1217;139957;-61
2022/04/27 16:26:49;;;;;;;20.00;14.20;;;;;;;17.40;51.56;99474.94;233201;1217;139686;-63
2022/04/27 16:31:52;;;;;;;18.70;13.20;;;;;;;17.07;50.01;99473.48;233097;1217;139017;-63
2022/04/27 16:37:01;;;;;;;22.50;13.80;;;;;;;16.68;49.71;99482.05;233202;1217;140295;-62
2022/04/27 16:42:04;;;;;;;20.10;13.80;;;;;;;16.41;49.79;99485.45;233400;1217;139413;-62
2022/04/27 16:47:07;;;;;;;22.20;13.40;;;;;;;16.17;49.88;99487.30;233336;1217;138847;-61
2022/04/27 16:52:16;;;;;;;17.10;13.20;;;;;;;15.98;49.85;99492.58;233218;1217;139107;-61
2022/04/27 16:57:23;;;;;;;19.30;14.20;;;;;;;15.81;49.84;99497.08;233262;1217;138972;-62
2022/04/27 17:02:26;;;;;;;19.80;13.60;;;;;;;15.71;50.20;99502.88;233121;1217;139018;-62
2022/04/27 17:07:29;;;;;;;19.60;14.10;;;;;;;15.68;50.29;99507.90;233376;1217;139464;-61
2022/04/27 17:12:32;;;;;;;33.10;25.60;;;;;;;15.70;50.28;99524.21;233394;1216;139390;-59
2022/04/27 17:17:35;;;;;;;42.90;29.70;;;;;;;15.72;50.86;99527.88;233293;1217;139763;-62
2022/04/27 17:22:38;;;;;;;21.20;14.90;;;;;;;16.16;53.54;99532.48;233125;1217;138698;-62
2022/04/27 17:27:43;;;;;;;23.10;17.10;;;;;;;16.49;51.78;99529.23;232771;1217;139252;-63
2022/04/27 17:32:53;;;;;;;25.50;16.40;;;;;;;16.82;53.71;99542.36;232582;1217;139019;-63
2022/04/27 17:38:01;;;;;;;25.20;15.40;;;;;;;17.53;54.06;99537.02;232616;1217;138978;-61
2022/04/27 17:43:05;;;;;;;21.10;13.40;;;;;;;17.92;52.44;99544.49;232148;1216;139344;-61
2022/04/27 17:48:35;;;;;;;;;;;;;;;17.53;49.84;99554.00;232382;1217;139183;-61
2022/04/27 17:53:45;;;;;;;23.50;14.30;;;;;;;17.00;49.19;99559.27;232646;1217;124790;-62
2022/04/27 17:58:51;;;;;;;21.10;14.00;;;;;;;16.60;49.29;99561.17;232366;1217;139008;-63
2022/04/27 18:03:56;;;;;;;25.30;15.30;;;;;;;16.35;49.41;99565.46;232443;1217;138470;-62
2022/04/27 18:09:04;;;;;;;20.30;14.50;;;;;;;16.18;49.71;99570.65;232706;1217;139672;-61
2022/04/27 18:14:08;;;;;;;26.10;15.00;;;;;;;16.03;49.75;99577.05;232477;1215;138751;-60
2022/04/27 18:19:14;;;;;;;;;;;;;;;15.86;49.81;99581.65;232504;1216;138946;-62
2022/04/27 18:24:20;;;;;;;22.50;15.30;;;;;;;15.73;49.97;99589.50;233248;1217;124586;-62
2022/04/27 18:29:25;;;;;;;22.30;14.80;;;;;;;15.63;50.15;99599.13;232390;1217;138381;-63
2022/04/27 18:34:28;;;;;;;20.20;15.20;;;;;;;15.58;50.20;99606.41;232185;1216;138935;-61
2022/04/27 18:39:35;;;;;;;50.80;40.80;;;;;;;15.55;50.46;99609.70;232533;1217;139033;-61
2022/04/27 18:50:08;;;;;;;22.10;17.30;;;;;;;15.63;50.62;99620.23;231842;1217;140062;-62
2022/04/27 18:55:12;;;;;;;22.10;16.20;;;;;;;15.57;50.42;99623.19;232667;1216;138780;-61
2022/04/27 19:00:19;;;;;;;28.00;16.50;;;;;;;15.48;50.46;99627.46;231683;1217;138938;-60
2022/04/27 19:05:32;;;;;;;24.70;16.70;;;;;;;15.36;50.53;99629.51;231853;1217;138872;-62
2022/04/27 19:10:36;;;;;;;89.30;66.20;;;;;;;15.29;50.69;99628.77;232108;1217;140316;-61
2022/04/27 19:15:42;;;;;;;35.10;24.80;;;;;;;15.30;51.25;99630.85;232099;1217;139622;-60
2022/04/27 19:20:47;;;;;;;26.70;17.40;;;;;;;15.32;51.15;99625.71;232122;1217;139683;-58
2022/04/27 19:25:51;;;;;;;27.00;18.20;;;;;;;15.25;50.92;99632.85;231902;1217;139081;-59
2022/04/27 19:30:55;;;;;;;25.10;18.50;;;;;;;15.18;51.12;99633.34;232091;1217;139089;-58
2022/04/27 19:36:03;;;;;;;28.50;18.20;;;;;;;15.11;51.04;99633.30;231575;1217;138795;-60
2022/04/27 19:41:07;;;;;;;30.30;20.00;;;;;;;15.04;51.07;99638.29;232006;1217;139175;-59
2022/04/27 19:46:17;;;;;;;28.40;18.80;;;;;;;14.98;51.16;99637.45;231291;1217;138737;-59
2022/04/27 19:51:26;;;;;;;28.70;19.70;;;;;;;14.95;51.35;99634.83;231218;1217;138951;-58
2022/04/27 19:56:31;;;;;;;29.00;18.50;;;;;;;14.96;51.42;99638.11;231218;1217;138695;-59
2022/04/27 20:01:36;;;;;;;26.40;18.40;;;;;;;14.93;51.49;99640.32;232066;1216;139014;-59
2022/04/27 20:06:39;;;;;;;27.10;18.50;;;;;;;14.90;51.55;99643.89;231347;1217;139956;-58
2022/04/27 20:11:47;;;;;;;32.00;18.70;;;;;;;14.87;51.53;99645.89;231418;1217;138827;-59
2022/04/27 20:16:53;;;;;;;29.90;20.10;;;;;;;14.84;51.71;99647.67;232044;1217;138867;-59
2022/04/27 20:22:08;;;;;;;32.10;20.70;;;;;;;14.81;51.84;99644.33;231981;1216;138471;-61
2022/04/27 20:27:16;;;;;;;36.30;21.50;;;;;;;14.79;51.93;99649.15;231428;1217;138930;-62
2022/04/27 20:32:21;;;;;;;32.40;22.50;;;;;;;14.74;52.10;99651.63;232117;1217;138581;-63
2022/04/27 20:37:29;;;;;;;31.40;23.10;;;;;;;14.68;52.20;99652.20;231268;1217;138964;-65
2022/04/27 20:42:40;;;;;;;35.70;23.90;;;;;;;14.65;52.27;99651.53;232100;1217;138362;-60
2022/04/27 20:47:49;;;;;;;33.70;23.20;;;;;;;14.62;52.25;99657.64;231962;1217;139379;-62
2022/04/27 20:53:00;;;;;;;38.80;25.60;;;;;;;14.54;52.42;99659.63;231995;1216;139344;-60
2022/04/27 20:58:10;;;;;;;42.40;28.70;;;;;;;14.49;52.53;99663.67;232626;1217;139344;-59
2022/04/27 21:03:20;;;;;;;37.50;25.70;;;;;;;14.50;52.66;99668.12;232077;1217;139451;-62
2022/04/27 21:08:23;;;;;;;39.70;26.50;;;;;;;14.50;52.73;99665.94;231536;1217;138657;-65
2022/04/27 21:13:29;;;;;;;38.30;25.40;;;;;;;14.50;52.76;99665.39;231946;1217;140005;-60
2022/04/27 21:18:35;;;;;;;36.50;25.60;;;;;;;14.50;52.81;99669.36;231580;1217;141454;-64
2022/04/27 21:23:41;;;;;;;37.00;24.60;;;;;;;14.49;52.76;99669.96;231319;1217;139461;-63
2022/04/27 21:28:49;;;;;;;38.00;25.30;;;;;;;14.52;52.63;99675.65;231877;1217;138544;-63
2022/04/27 21:33:54;;;;;;;34.70;24.10;;;;;;;14.53;52.62;99678.10;232278;1217;139561;-60
2022/04/27 21:39:08;;;;;;;50.00;33.10;;;;;;;14.50;52.76;99679.50;231543;1217;138440;-59
2022/04/27 21:44:13;;;;;;;42.00;25.00;;;;;;;14.49;52.94;99682.27;232219;1217;140143;-60
2022/04/27 21:49:18;;;;;;;34.80;24.00;;;;;;;14.41;52.97;99677.77;232916;1217;139076;-57
2022/04/27 21:54:21;;;;;;;34.70;23.00;;;;;;;14.37;52.97;99683.90;233012;1217;139419;-60
2022/04/27 21:59:24;;;;;;;34.40;22.70;;;;;;;14.26;53.28;99681.28;233198;1217;138472;-61
2022/04/27 22:04:27;;;;;;;35.90;21.90;;;;;;;14.12;53.24;99687.41;233388;1217;138859;-59
2022/04/27 22:09:31;;;;;;;35.70;21.50;;;;;;;14.03;53.41;99692.27;233108;1217;139695;-60
2022/04/27 22:14:34;;;;;;;31.60;20.10;;;;;;;13.95;53.60;99691.39;233337;1217;140651;-59
2022/04/27 22:19:37;;;;;;;33.80;20.10;;;;;;;13.91;53.39;99689.50;233253;1217;139366;-61
2022/04/27 22:24:40;;;;;;;26.80;19.20;;;;;;;13.89;53.45;99694.08;233423;1217;139632;-59
2022/04/27 22:29:43;;;;;;;28.40;18.90;;;;;;;13.87;53.52;99693.48;233128;1217;139442;-58
2022/04/27 22:34:46;;;;;;;26.80;17.40;;;;;;;13.83;53.70;99692.30;233574;1217;138740;-59
2022/04/27 22:39:49;;;;;;;30.00;18.20;;;;;;;13.78;53.73;99688.88;233103;1217;139086;-60
2022/04/27 22:44:52;;;;;;;25.30;17.30;;;;;;;13.72;53.86;99685.89;233250;1217;139590;-61
2022/04/27 22:49:56;;;;;;;25.50;16.40;;;;;;;13.70;53.89;99691.20;232927;1217;138725;-58
2022/04/27 22:54:58;;;;;;;23.20;15.50;;;;;;;13.68;53.65;99689.41;233101;1217;139060;-60
2022/04/27 23:00:03;;;;;;;22.00;14.80;;;;;;;13.68;53.76;99687.97;233492;1217;139183;-62
2022/04/27 23:05:07;;;;;;;20.30;13.80;;;;;;;13.67;53.63;99684.29;232917;1217;140430;-60
2022/04/27 23:15:32;;;;;;;19.00;13.00;;;;;;;13.72;53.29;99680.19;233435;1217;139608;-64
2022/04/27 23:20:40;;;;;;;20.00;13.50;;;;;;;13.76;53.22;99681.77;233456;1217;138769;-60
2022/04/27 23:25:43;;;;;;;21.70;14.20;;;;;;;13.73;53.03;99673.70;233101;1217;139191;-61
2022/04/27 23:30:46;;;;;;;20.50;13.10;;;;;;;13.75;52.80;99681.27;232795;1217;139511;-60
2022/04/27 23:35:49;;;;;;;19.70;13.30;;;;;;;13.73;52.70;99679.09;232812;1217;140277;-59
2022/04/27 23:40:53;;;;;;;19.60;13.20;;;;;;;13.72;52.57;99678.05;233350;1217;139821;-58
2022/04/27 23:45:56;;;;;;;20.10;12.80;;;;;;;13.71;52.39;99678.45;233088;1218;140401;-58